createdAt,value
2017-07-27T00:00:51.556Z,0
2017-07-27T00:02:01.589Z,0
2017-07-27T00:03:11.676Z,0
2017-07-27T00:04:22.016Z,0
2017-07-27T00:05:32.382Z,0
2017-07-27T00:06:42.732Z,0
2017-07-27T00:07:52.764Z,0
2017-07-27T00:09:02.844Z,0
2017-07-27T00:10:12.863Z,0
2017-07-27T00:11:23.207Z,0
2017-07-27T00:12:33.541Z,0
2017-07-27T00:13:43.869Z,0
2017-07-27T00:14:53.962Z,0
2017-07-27T00:16:04.309Z,0
2017-07-27T00:17:14.651Z,0
2017-07-27T00:18:24.991Z,0
2017-07-27T00:19:35.334Z,0
2017-07-27T00:20:45.729Z,0
2017-07-27T00:21:56.083Z,0
2017-07-27T00:23:06.428Z,0
2017-07-27T00:24:16.781Z,0
2017-07-27T00:25:27.128Z,0
2017-07-27T00:26:37.224Z,0
2017-07-27T00:27:47.266Z,0
2017-07-27T00:28:57.294Z,0
2017-07-27T00:30:07.025Z,0
2017-07-27T00:31:17.049Z,0
2017-07-27T00:32:27.075Z,0
2017-07-27T00:33:37.405Z,0
2017-07-27T00:34:47.440Z,0
2017-07-27T00:35:57.797Z,0
2017-07-27T00:37:08.128Z,0
2017-07-27T00:38:17.851Z,0
2017-07-27T00:39:28.187Z,0
2017-07-27T00:40:38.535Z,0
2017-07-27T00:41:48.567Z,0
2017-07-27T00:42:58.626Z,0
2017-07-27T00:44:09.038Z,0
2017-07-27T00:45:19.393Z,0
2017-07-27T00:46:29.741Z,0
2017-07-27T00:47:40.089Z,0
2017-07-27T00:48:50.416Z,0
2017-07-27T00:50:00.765Z,0
2017-07-27T00:51:11.104Z,0
2017-07-27T00:52:21.127Z,0
2017-07-27T00:53:31.492Z,0
2017-07-27T00:54:41.834Z,0
2017-07-27T00:55:52.174Z,0
2017-07-27T00:57:02.509Z,0
2017-07-27T00:58:12.871Z,0
2017-07-27T00:59:23.479Z,0
2017-07-27T01:00:33.825Z,0
2017-07-27T01:01:44.238Z,0
2017-07-27T01:02:54.592Z,0
2017-07-27T01:04:04.936Z,0
2017-07-27T01:05:15.277Z,0
2017-07-27T01:06:25.305Z,0
2017-07-27T01:07:35.388Z,0
2017-07-27T01:08:45.408Z,0
2017-07-27T01:09:55.437Z,0
2017-07-27T01:11:05.802Z,0
2017-07-27T01:12:15.548Z,0
2017-07-27T01:13:25.946Z,0
2017-07-27T01:14:35.687Z,0
2017-07-27T01:15:46.035Z,0
2017-07-27T01:16:56.362Z,0
2017-07-27T01:18:06.704Z,0
2017-07-27T01:19:17.060Z,0
2017-07-27T01:20:27.423Z,0
2017-07-27T01:21:37.809Z,0
2017-07-27T01:22:48.130Z,0
2017-07-27T01:23:58.553Z,0
2017-07-27T01:25:08.944Z,0
2017-07-27T01:26:19.295Z,0
2017-07-27T01:27:29.333Z,0
2017-07-27T01:28:39.679Z,0
2017-07-27T01:29:50.041Z,0
2017-07-27T01:31:00.072Z,0
2017-07-27T01:32:10.411Z,0
2017-07-27T01:33:20.450Z,0
2017-07-27T01:34:30.789Z,0
2017-07-27T01:35:41.153Z,0
2017-07-27T01:36:51.537Z,0
2017-07-27T01:38:01.889Z,0
2017-07-27T01:39:11.930Z,0
2017-07-27T01:40:22.279Z,0
2017-07-27T01:41:32.633Z,0
2017-07-27T01:42:43.030Z,0
2017-07-27T01:43:53.365Z,0
2017-07-27T01:45:03.704Z,0
2017-07-27T01:46:14.050Z,0
2017-07-27T01:47:24.404Z,0
2017-07-27T01:48:34.450Z,0
2017-07-27T01:49:44.788Z,0
2017-07-27T01:50:55.157Z,0
2017-07-27T01:52:05.528Z,0
2017-07-27T01:53:15.870Z,0
2017-07-27T01:54:25.943Z,0
2017-07-27T01:55:35.659Z,0
2017-07-27T01:56:46.020Z,0
2017-07-27T01:57:56.359Z,0
2017-07-27T01:59:06.721Z,0
2017-07-27T02:00:17.067Z,0
2017-07-27T02:01:27.403Z,0
2017-07-27T02:02:37.740Z,0
2017-07-27T02:03:48.096Z,0
2017-07-27T02:04:58.438Z,0
2017-07-27T02:06:08.832Z,0
2017-07-27T02:07:19.183Z,0
2017-07-27T02:08:29.544Z,0
2017-07-27T02:09:39.577Z,0
2017-07-27T02:10:49.935Z,0
2017-07-27T02:12:00.343Z,0
2017-07-27T02:13:10.672Z,0
2017-07-27T02:14:20.699Z,0
2017-07-27T02:15:31.041Z,0
2017-07-27T02:16:41.393Z,0
2017-07-27T02:17:51.786Z,0
2017-07-27T02:19:02.180Z,0
2017-07-27T02:20:12.522Z,0
2017-07-27T02:21:22.553Z,0
2017-07-27T02:22:32.897Z,0
2017-07-27T02:23:42.925Z,0
2017-07-27T02:24:53.292Z,0
2017-07-27T02:26:03.781Z,0
2017-07-27T02:27:13.818Z,0
2017-07-27T02:28:23.848Z,0
2017-07-27T02:29:34.250Z,0
2017-07-27T02:30:44.563Z,0
2017-07-27T02:31:54.911Z,0
2017-07-27T02:33:05.270Z,0
2017-07-27T02:34:15.674Z,0
2017-07-27T02:35:25.755Z,0
2017-07-27T02:36:36.120Z,0
2017-07-27T02:37:46.482Z,0
2017-07-27T02:38:56.816Z,0
2017-07-27T02:40:07.155Z,0
2017-07-27T02:41:17.508Z,0
2017-07-27T02:42:27.856Z,0
2017-07-27T02:43:38.212Z,0
2017-07-27T02:44:48.238Z,0
2017-07-27T02:45:58.599Z,0
2017-07-27T02:47:08.957Z,0
2017-07-27T02:48:19.354Z,0
2017-07-27T02:49:29.691Z,0
2017-07-27T02:50:39.719Z,0
2017-07-27T02:51:50.073Z,0
2017-07-27T02:53:00.472Z,0
2017-07-27T02:54:10.808Z,0
2017-07-27T02:55:21.156Z,0
2017-07-27T02:56:31.179Z,0
2017-07-27T02:57:41.508Z,0
2017-07-27T02:58:51.527Z,0
2017-07-27T03:00:01.557Z,0
2017-07-27T03:01:11.602Z,0
2017-07-27T03:33:23.662Z,0
2017-07-27T03:34:33.996Z,0
2017-07-27T03:35:44.331Z,0
2017-07-27T03:36:54.676Z,0
2017-07-27T03:38:05.029Z,0
2017-07-27T03:39:15.422Z,0
2017-07-27T03:40:25.784Z,0
2017-07-27T03:41:36.113Z,0
2017-07-27T03:42:46.456Z,0
2017-07-27T03:43:56.776Z,0
2017-07-27T03:45:06.786Z,0
2017-07-27T03:46:17.131Z,0
2017-07-27T03:47:27.148Z,0
2017-07-27T03:48:36.881Z,0
2017-07-27T03:49:47.235Z,5
2017-07-27T03:50:57.646Z,5
2017-07-27T03:52:07.677Z,5
2017-07-27T03:53:18.015Z,5
2017-07-27T03:54:28.374Z,5
2017-07-27T03:55:38.716Z,5
2017-07-27T03:56:49.093Z,5
2017-07-27T03:57:58.814Z,5
2017-07-27T03:59:09.185Z,5
2017-07-27T04:00:19.533Z,5
2017-07-27T04:01:29.570Z,5
2017-07-27T04:02:39.981Z,5
2017-07-27T04:03:50.310Z,5
2017-07-27T04:05:00.657Z,10
2017-07-27T04:06:10.701Z,10
2017-07-27T04:07:21.057Z,10
2017-07-27T04:08:31.134Z,10
2017-07-27T04:09:41.491Z,10
2017-07-27T04:10:51.829Z,10
2017-07-27T04:12:01.871Z,15
2017-07-27T04:13:12.208Z,15
2017-07-27T04:14:22.604Z,15
2017-07-27T04:15:32.942Z,15
2017-07-27T04:16:43.288Z,15
2017-07-27T04:17:53.624Z,15
2017-07-27T04:19:03.966Z,15
2017-07-27T04:20:14.304Z,20
2017-07-27T04:21:24.638Z,20
2017-07-27T04:22:34.678Z,25
2017-07-27T04:23:45.013Z,25
2017-07-27T04:24:54.421Z,25
2017-07-27T04:26:04.767Z,25
2017-07-27T04:27:15.098Z,30
2017-07-27T04:28:25.149Z,30
2017-07-27T04:29:35.502Z,30
2017-07-27T04:30:45.217Z,30
2017-07-27T04:31:55.625Z,35
2017-07-27T04:33:05.962Z,35
2017-07-27T04:34:16.305Z,35
2017-07-27T04:35:26.639Z,40
2017-07-27T04:36:36.997Z,40
2017-07-27T04:37:47.323Z,40
2017-07-27T04:38:57.352Z,40
2017-07-27T04:40:07.703Z,40
2017-07-27T04:41:17.735Z,40
2017-07-27T04:42:28.083Z,40
2017-07-27T04:43:38.168Z,40
2017-07-27T04:44:47.883Z,35
2017-07-27T04:45:58.250Z,35
2017-07-27T04:47:08.272Z,35
2017-07-27T04:48:18.624Z,35
2017-07-27T04:49:29.023Z,35
2017-07-27T04:50:38.436Z,35
2017-07-27T04:51:48.777Z,35
2017-07-27T04:52:58.812Z,35
2017-07-27T04:54:08.835Z,35
2017-07-27T04:55:19.235Z,40
2017-07-27T04:56:29.579Z,40
2017-07-27T04:57:39.929Z,40
2017-07-27T04:58:49.976Z,40
2017-07-27T05:00:00.333Z,40
2017-07-27T05:01:10.730Z,40
2017-07-27T05:02:21.087Z,45
2017-07-27T05:03:31.424Z,45
2017-07-27T05:04:41.804Z,45
2017-07-27T05:05:52.146Z,45
2017-07-27T05:07:02.490Z,45
2017-07-27T05:08:12.825Z,45
2017-07-27T05:09:22.869Z,50
2017-07-27T05:10:32.901Z,50
2017-07-27T05:11:43.272Z,50
2017-07-27T05:12:53.661Z,55
2017-07-27T05:14:03.699Z,55
2017-07-27T05:15:14.036Z,55
2017-07-27T05:16:24.383Z,55
2017-07-27T05:17:34.725Z,55
2017-07-27T05:18:45.108Z,55
2017-07-27T05:19:55.457Z,55
2017-07-27T05:21:05.804Z,55
2017-07-27T05:22:16.138Z,60
2017-07-27T05:23:26.485Z,60
2017-07-27T05:24:36.876Z,60
2017-07-27T05:25:47.236Z,60
2017-07-27T05:26:57.585Z,65
2017-07-27T05:28:07.943Z,65
2017-07-27T05:29:18.277Z,60
2017-07-27T05:30:28.686Z,60
2017-07-27T05:31:39.071Z,60
2017-07-27T05:32:49.429Z,65
2017-07-27T05:33:59.784Z,70
2017-07-27T05:35:09.812Z,75
2017-07-27T05:36:19.935Z,75
2017-07-27T05:37:30.283Z,75
2017-07-27T05:38:40.643Z,80
2017-07-27T05:39:50.987Z,80
2017-07-27T05:41:01.322Z,85
2017-07-27T05:42:11.670Z,90
2017-07-27T05:43:21.709Z,90
2017-07-27T05:44:32.048Z,85
2017-07-27T05:45:42.397Z,80
2017-07-27T05:46:52.455Z,80
2017-07-27T05:48:02.238Z,75
2017-07-27T05:49:12.592Z,80
2017-07-27T05:50:22.309Z,85
2017-07-27T05:51:32.672Z,85
2017-07-27T05:52:43.023Z,90
2017-07-27T05:53:53.124Z,85
2017-07-27T05:55:03.461Z,80
2017-07-27T05:56:13.802Z,75
2017-07-27T05:57:24.157Z,75
2017-07-27T05:58:34.491Z,75
2017-07-27T05:59:44.527Z,75
2017-07-27T06:00:54.880Z,80
2017-07-27T06:02:05.221Z,80
2017-07-27T06:03:15.262Z,80
2017-07-27T06:04:25.289Z,85
2017-07-27T06:05:35.319Z,85
2017-07-27T06:06:45.355Z,90
2017-07-27T06:07:55.701Z,95
2017-07-27T06:09:06.037Z,95
2017-07-27T06:10:16.384Z,105
2017-07-27T06:11:26.736Z,100
2017-07-27T06:12:37.076Z,95
2017-07-27T06:13:47.435Z,90
2017-07-27T06:14:57.768Z,85
2017-07-27T06:16:07.811Z,85
2017-07-27T06:17:18.169Z,80
2017-07-27T06:18:28.211Z,80
2017-07-27T06:19:38.249Z,80
2017-07-27T06:20:48.589Z,80
2017-07-27T06:21:58.943Z,80
2017-07-27T06:23:09.348Z,85
2017-07-27T06:24:19.702Z,85
2017-07-27T06:25:29.729Z,90
2017-07-27T06:26:39.750Z,95
2017-07-27T06:27:50.094Z,100
2017-07-27T06:29:00.428Z,105
2017-07-27T06:30:10.465Z,105
2017-07-27T06:31:20.825Z,105
2017-07-27T06:32:31.163Z,110
2017-07-27T06:33:41.500Z,115
2017-07-27T06:34:51.894Z,115
2017-07-27T06:36:02.239Z,115
2017-07-27T06:37:12.591Z,115
2017-07-27T06:38:22.961Z,115
2017-07-27T06:39:33.314Z,110
2017-07-27T06:40:43.345Z,110
2017-07-27T06:41:53.376Z,105
2017-07-27T06:43:03.732Z,100
2017-07-27T06:44:14.102Z,100
2017-07-27T06:45:23.832Z,105
2017-07-27T06:46:34.228Z,110
2017-07-27T06:47:44.816Z,110
2017-07-27T06:48:55.163Z,115
2017-07-27T06:50:05.503Z,115
2017-07-27T06:51:15.853Z,120
2017-07-27T06:52:25.878Z,120
2017-07-27T06:53:35.914Z,125
2017-07-27T06:54:46.259Z,135
2017-07-27T06:55:56.598Z,140
2017-07-27T06:57:06.950Z,140
2017-07-27T06:58:17.343Z,140
2017-07-27T06:59:27.695Z,145
2017-07-27T07:00:37.741Z,145
2017-07-27T07:01:48.096Z,140
2017-07-27T07:02:58.138Z,140
2017-07-27T07:04:08.531Z,135
2017-07-27T07:05:18.884Z,130
2017-07-27T07:06:29.240Z,125
2017-07-27T07:07:39.586Z,120
2017-07-27T07:08:49.925Z,120
2017-07-27T07:10:00.350Z,115
2017-07-27T07:11:10.390Z,110
2017-07-27T07:12:20.738Z,110
2017-07-27T07:13:30.768Z,110
2017-07-27T07:14:40.799Z,115
2017-07-27T07:15:50.882Z,120
2017-07-27T07:17:01.239Z,125
2017-07-27T07:18:11.262Z,130
2017-07-27T07:19:21.616Z,135
2017-07-27T07:20:31.957Z,135
2017-07-27T07:21:42.368Z,130
2017-07-27T07:22:52.724Z,130
2017-07-27T07:24:03.072Z,130
2017-07-27T07:25:13.119Z,130
2017-07-27T07:26:23.474Z,125
2017-07-27T07:27:33.255Z,125
2017-07-27T07:28:43.278Z,130
2017-07-27T07:29:53.622Z,135
2017-07-27T07:31:03.984Z,135
2017-07-27T07:32:14.338Z,135
2017-07-27T07:33:24.735Z,140
2017-07-27T07:34:35.077Z,145
2017-07-27T07:35:45.438Z,155
2017-07-27T07:36:55.780Z,160
2017-07-27T07:38:06.147Z,155
2017-07-27T07:39:16.181Z,155
2017-07-27T07:40:25.901Z,165
2017-07-27T07:41:36.239Z,170
2017-07-27T07:42:46.583Z,180
2017-07-27T07:43:56.297Z,195
2017-07-27T07:45:06.407Z,190
2017-07-27T07:46:16.763Z,200
2017-07-27T07:47:26.798Z,205
2017-07-27T07:48:37.153Z,220
2017-07-27T07:49:47.180Z,215
2017-07-27T07:50:57.272Z,220
2017-07-27T07:52:07.299Z,210
2017-07-27T07:53:17.355Z,205
2017-07-27T07:54:27.706Z,220
2017-07-27T07:55:37.770Z,225
2017-07-27T07:56:47.803Z,225
2017-07-27T07:57:58.161Z,225
2017-07-27T07:59:08.224Z,240
2017-07-27T08:00:18.585Z,240
2017-07-27T08:01:28.939Z,230
2017-07-27T08:02:39.020Z,220
2017-07-27T08:03:49.067Z,220
2017-07-27T08:04:59.450Z,225
2017-07-27T08:06:09.511Z,220
2017-07-27T08:07:19.852Z,220
2017-07-27T08:08:30.193Z,215
2017-07-27T08:09:40.221Z,220
2017-07-27T08:10:49.935Z,215
2017-07-27T08:12:00.294Z,220
2017-07-27T08:13:10.338Z,220
2017-07-27T08:14:20.767Z,210
2017-07-27T08:15:31.096Z,200
2017-07-27T08:16:41.131Z,180
2017-07-27T08:17:50.862Z,170
2017-07-27T08:19:01.200Z,175
2017-07-27T08:20:10.927Z,175
2017-07-27T08:21:21.293Z,180
2017-07-27T08:22:31.649Z,190
2017-07-27T08:23:42.009Z,190
2017-07-27T08:24:52.369Z,190
2017-07-27T08:26:02.722Z,190
2017-07-27T08:27:12.769Z,190
2017-07-27T08:28:23.142Z,190
2017-07-27T08:29:33.500Z,190
2017-07-27T08:30:43.856Z,190
2017-07-27T08:31:54.260Z,195
2017-07-27T08:33:04.624Z,205
2017-07-27T08:34:14.657Z,210
2017-07-27T08:35:25.013Z,210
2017-07-27T08:36:35.359Z,215
2017-07-27T08:37:45.756Z,220
2017-07-27T08:38:56.104Z,230
2017-07-27T08:40:06.472Z,235
2017-07-27T08:41:16.819Z,255
2017-07-27T08:42:27.169Z,265
2017-07-27T08:43:37.594Z,270
2017-07-27T08:44:47.680Z,280
2017-07-27T08:45:58.087Z,295
2017-07-27T08:47:08.435Z,305
2017-07-27T08:48:18.803Z,310
2017-07-27T08:49:28.894Z,310
2017-07-27T08:50:38.930Z,305
2017-07-27T08:51:48.967Z,305
2017-07-27T08:52:59.015Z,300
2017-07-27T08:54:09.064Z,295
2017-07-27T08:55:19.102Z,290
2017-07-27T08:56:29.477Z,290
2017-07-27T08:57:39.502Z,295
2017-07-27T08:58:49.533Z,295
2017-07-27T08:59:59.587Z,285
2017-07-27T09:01:09.688Z,275
2017-07-27T09:02:19.824Z,270
2017-07-27T09:03:29.867Z,265
2017-07-27T09:04:40.212Z,265
2017-07-27T09:05:50.556Z,265
2017-07-27T09:07:00.979Z,270
2017-07-27T09:08:11.360Z,265
2017-07-27T09:09:21.710Z,240
2017-07-27T09:10:32.091Z,225
2017-07-27T09:11:42.154Z,220
2017-07-27T09:12:52.255Z,215
2017-07-27T09:14:02.620Z,220
2017-07-27T09:15:12.684Z,225
2017-07-27T09:16:22.739Z,230
2017-07-27T09:17:33.093Z,240
2017-07-27T09:18:43.506Z,255
2017-07-27T09:19:53.870Z,260
2017-07-27T09:21:04.349Z,265
2017-07-27T09:22:14.071Z,270
2017-07-27T09:23:24.451Z,275
2017-07-27T09:24:34.555Z,260
2017-07-27T09:25:44.920Z,245
2017-07-27T09:26:54.961Z,230
2017-07-27T09:28:05.325Z,225
2017-07-27T09:29:15.677Z,220
2017-07-27T09:30:26.097Z,215
2017-07-27T09:31:36.456Z,215
2017-07-27T09:32:46.946Z,215
2017-07-27T09:33:57.324Z,210
2017-07-27T09:35:07.693Z,210
2017-07-27T09:36:18.100Z,215
2017-07-27T09:37:27.836Z,215
2017-07-27T09:38:38.189Z,220
2017-07-27T09:39:48.576Z,220
2017-07-27T09:40:59.002Z,220
2017-07-27T09:42:09.417Z,220
2017-07-27T09:43:19.799Z,220
2017-07-27T09:44:30.168Z,220
2017-07-27T09:45:40.514Z,225
2017-07-27T09:46:50.585Z,225
2017-07-27T09:48:00.949Z,225
2017-07-27T09:49:11.323Z,225
2017-07-27T09:50:21.688Z,225
2017-07-27T09:51:31.837Z,225
2017-07-27T09:52:42.200Z,220
2017-07-27T09:53:52.563Z,225
2017-07-27T09:55:02.603Z,230
2017-07-27T09:56:12.342Z,225
2017-07-27T09:57:22.414Z,230
2017-07-27T09:58:32.472Z,235
2017-07-27T09:59:42.900Z,245
2017-07-27T10:00:53.258Z,255
2017-07-27T10:02:03.626Z,265
2017-07-27T10:03:14.001Z,275
2017-07-27T10:04:24.043Z,285
2017-07-27T10:05:34.428Z,280
2017-07-27T10:06:44.470Z,270
2017-07-27T10:07:54.840Z,270
2017-07-27T10:09:04.895Z,270
2017-07-27T10:10:15.279Z,280
2017-07-27T10:11:25.697Z,280
2017-07-27T10:12:35.742Z,275
2017-07-27T10:13:46.694Z,270
2017-07-27T10:14:57.151Z,265
2017-07-27T10:16:07.220Z,265
2017-07-27T10:17:17.670Z,265
2017-07-27T10:18:27.418Z,260
2017-07-27T10:19:37.800Z,260
2017-07-27T10:20:48.149Z,260
2017-07-27T10:21:58.517Z,265
2017-07-27T10:23:08.962Z,270
2017-07-27T10:24:19.371Z,265
2017-07-27T10:25:29.462Z,265
2017-07-27T10:26:39.831Z,265
2017-07-27T10:27:50.208Z,265
2017-07-27T10:29:00.644Z,260
2017-07-27T10:30:11.014Z,265
2017-07-27T10:31:21.385Z,270
2017-07-27T10:32:31.133Z,270
2017-07-27T10:33:41.205Z,275
2017-07-27T10:34:51.552Z,275
2017-07-27T10:36:01.944Z,275
2017-07-27T10:37:12.020Z,275
2017-07-27T10:38:22.401Z,280
2017-07-27T10:39:32.555Z,280
2017-07-27T10:40:43.029Z,280
2017-07-27T10:41:53.435Z,285
2017-07-27T10:43:03.822Z,290
2017-07-27T10:44:13.875Z,285
2017-07-27T10:45:24.250Z,285
2017-07-27T10:46:34.679Z,285
2017-07-27T10:47:45.042Z,280
2017-07-27T10:48:55.448Z,275
2017-07-27T10:50:05.509Z,270
2017-07-27T10:51:15.644Z,265
2017-07-27T10:52:25.784Z,260
2017-07-27T10:53:35.900Z,260
2017-07-27T10:54:46.322Z,255
2017-07-27T10:55:56.376Z,255
2017-07-27T10:57:06.750Z,250
2017-07-27T10:58:17.183Z,255
2017-07-27T10:59:27.545Z,255
2017-07-27T11:00:37.963Z,255
2017-07-27T11:01:48.026Z,260
2017-07-27T11:02:58.436Z,255
2017-07-27T11:04:08.887Z,250
2017-07-27T11:05:19.287Z,245
2017-07-27T11:06:29.706Z,240
2017-07-27T11:07:39.748Z,235
2017-07-27T11:08:50.117Z,235
2017-07-27T11:10:00.229Z,240
2017-07-27T11:11:10.749Z,240
2017-07-27T11:12:21.210Z,240
2017-07-27T11:13:31.589Z,240
2017-07-27T11:14:41.661Z,235
2017-07-27T11:15:51.789Z,230
2017-07-27T11:17:02.182Z,220
2017-07-27T11:18:12.531Z,215
2017-07-27T11:19:22.916Z,205
2017-07-27T11:20:33.288Z,195
2017-07-27T11:21:43.759Z,190
2017-07-27T11:22:53.802Z,190
2017-07-27T11:24:04.188Z,190
2017-07-27T11:25:14.566Z,190
2017-07-27T11:26:24.951Z,190
2017-07-27T11:27:35.434Z,200
2017-07-27T11:28:45.817Z,200
2017-07-27T11:29:56.225Z,200
2017-07-27T11:31:06.601Z,190
2017-07-27T11:32:16.658Z,185
2017-07-27T11:33:27.066Z,180
2017-07-27T11:34:37.491Z,180
2017-07-27T11:35:47.669Z,180
2017-07-27T11:36:57.732Z,180
2017-07-27T11:38:08.142Z,180
2017-07-27T11:39:18.260Z,180
2017-07-27T11:40:28.634Z,180
2017-07-27T11:41:39.051Z,180
2017-07-27T11:42:49.192Z,185
2017-07-27T11:43:59.569Z,185
2017-07-27T11:45:10.045Z,185
2017-07-27T11:46:20.428Z,190
2017-07-27T11:47:30.844Z,190
2017-07-27T11:48:41.213Z,190
2017-07-27T11:49:51.591Z,190
2017-07-27T11:51:02.053Z,185
2017-07-27T11:52:12.166Z,180
2017-07-27T11:53:22.536Z,175
2017-07-27T11:54:32.957Z,170
2017-07-27T11:55:43.341Z,170
2017-07-27T11:56:53.482Z,170
2017-07-27T11:58:03.561Z,180
2017-07-27T11:59:13.927Z,195
2017-07-27T12:00:23.964Z,195
2017-07-27T12:01:34.443Z,190
2017-07-27T12:02:44.870Z,195
2017-07-27T12:03:55.242Z,195
2017-07-27T12:05:05.647Z,200
2017-07-27T12:06:16.037Z,205
2017-07-27T12:07:26.440Z,210
2017-07-27T12:08:36.646Z,215
2017-07-27T12:09:47.062Z,220
2017-07-27T12:10:57.431Z,220
2017-07-27T12:12:07.880Z,225
2017-07-27T12:13:18.263Z,225
2017-07-27T12:14:28.628Z,235
2017-07-27T12:15:38.667Z,255
2017-07-27T12:16:48.693Z,275
2017-07-27T12:17:59.110Z,290
2017-07-27T12:19:09.529Z,305
2017-07-27T12:20:19.654Z,310
2017-07-27T12:21:30.128Z,310
2017-07-27T12:22:40.539Z,310
2017-07-27T12:23:50.285Z,300
2017-07-27T12:25:00.686Z,285
2017-07-27T12:26:10.761Z,280
2017-07-27T12:27:21.105Z,295
2017-07-27T12:28:31.513Z,315
2017-07-27T12:29:41.888Z,320
2017-07-27T12:30:52.252Z,325
2017-07-27T12:32:02.684Z,325
2017-07-27T12:33:13.071Z,335
2017-07-27T12:34:23.541Z,345
2017-07-27T12:35:33.323Z,355
2017-07-27T12:36:43.106Z,355
2017-07-27T12:37:53.149Z,365
2017-07-27T12:39:03.231Z,360
2017-07-27T12:40:13.643Z,390
2017-07-27T12:41:23.751Z,395
2017-07-27T12:42:34.119Z,400
2017-07-27T12:43:44.494Z,400
2017-07-27T12:44:54.932Z,385
2017-07-27T12:46:05.380Z,365
2017-07-27T12:47:15.195Z,355
2017-07-27T12:48:25.327Z,365
2017-07-27T12:49:35.159Z,360
2017-07-27T12:50:45.534Z,365
2017-07-27T12:51:55.676Z,365
2017-07-27T12:53:05.743Z,355
2017-07-27T12:54:16.115Z,355
2017-07-27T12:55:26.516Z,355
2017-07-27T12:56:36.952Z,365
2017-07-27T12:57:47.407Z,390
2017-07-27T12:58:56.833Z,365
2017-07-27T13:00:07.232Z,345
2017-07-27T13:01:17.585Z,345
2017-07-27T13:02:27.977Z,345
2017-07-27T13:03:38.461Z,330
2017-07-27T13:04:48.833Z,325
2017-07-27T13:05:58.880Z,320
2017-07-27T13:07:09.241Z,330
2017-07-27T13:08:19.610Z,315
2017-07-27T13:09:30.041Z,310
2017-07-27T13:10:40.419Z,305
2017-07-27T13:11:50.777Z,300
2017-07-27T13:13:01.171Z,290
2017-07-27T13:14:11.557Z,280
2017-07-27T13:15:22.002Z,275
2017-07-27T13:16:32.397Z,270
2017-07-27T13:17:42.778Z,265
2017-07-27T13:18:53.157Z,265
2017-07-27T13:20:03.544Z,265
2017-07-27T13:21:13.339Z,260
2017-07-27T13:22:23.397Z,250
2017-07-27T13:23:33.453Z,240
2017-07-27T13:24:43.862Z,230
2017-07-27T13:25:54.246Z,235
2017-07-27T13:27:04.345Z,240
2017-07-27T13:28:14.086Z,240
2017-07-27T13:29:24.463Z,235
2017-07-27T13:30:34.869Z,230
2017-07-27T13:31:44.602Z,230
2017-07-27T13:32:55.021Z,235
2017-07-27T13:34:05.394Z,240
2017-07-27T13:35:15.793Z,250
2017-07-27T13:36:25.845Z,255
2017-07-27T13:37:35.885Z,260
2017-07-27T13:38:45.934Z,255
2017-07-27T13:39:56.024Z,255
2017-07-27T13:41:06.375Z,260
2017-07-27T13:42:16.751Z,270
2017-07-27T13:43:26.819Z,270
2017-07-27T13:44:36.922Z,275
2017-07-27T13:45:46.668Z,280
2017-07-27T13:46:57.049Z,280
2017-07-27T13:48:07.431Z,280
2017-07-27T13:49:17.813Z,280
2017-07-27T13:50:28.202Z,275
2017-07-27T13:51:38.251Z,270
2017-07-27T13:52:48.297Z,270
2017-07-27T13:53:58.666Z,275
2017-07-27T13:55:08.733Z,260
2017-07-27T13:56:18.872Z,260
2017-07-27T13:57:29.236Z,255
2017-07-27T13:58:39.607Z,260
2017-07-27T13:59:49.993Z,265
2017-07-27T14:01:00.034Z,265
2017-07-27T14:02:10.457Z,260
2017-07-27T14:03:20.519Z,255
2017-07-27T14:04:30.877Z,250
2017-07-27T14:05:40.635Z,250
2017-07-27T14:06:51.009Z,250
2017-07-27T14:08:01.392Z,250
2017-07-27T14:09:11.764Z,250
2017-07-27T14:10:22.158Z,250
2017-07-27T14:11:32.548Z,255
2017-07-27T14:12:42.621Z,280
2017-07-27T14:13:53.048Z,290
2017-07-27T14:15:03.413Z,310
2017-07-27T14:16:14.016Z,330
2017-07-27T14:17:24.089Z,255
2017-07-27T14:18:34.141Z,245
2017-07-27T14:19:44.573Z,230
2017-07-27T14:20:54.953Z,225
2017-07-27T14:22:05.023Z,230
2017-07-27T14:23:15.078Z,235
2017-07-27T14:24:25.143Z,245
2017-07-27T14:25:35.845Z,235
2017-07-27T14:26:46.220Z,225
2017-07-27T14:27:56.621Z,225
2017-07-27T14:29:07.022Z,225
2017-07-27T14:30:17.431Z,220
2017-07-27T14:31:27.869Z,215
2017-07-27T14:32:38.251Z,205
2017-07-27T14:33:48.346Z,195
2017-07-27T14:34:58.399Z,185
2017-07-27T14:36:08.523Z,185
2017-07-27T14:37:18.943Z,185
2017-07-27T14:38:29.306Z,185
2017-07-27T14:39:39.702Z,180
2017-07-27T14:40:49.762Z,180
2017-07-27T14:42:00.182Z,170
2017-07-27T14:43:10.600Z,165
2017-07-27T14:44:21.035Z,160
2017-07-27T14:45:31.474Z,155
2017-07-27T14:46:41.910Z,155
2017-07-27T14:47:52.307Z,150
2017-07-27T14:49:02.708Z,150
2017-07-27T14:50:13.086Z,150
2017-07-27T14:51:23.489Z,145
2017-07-27T14:52:33.868Z,145
2017-07-27T14:53:43.946Z,145
2017-07-27T14:54:54.370Z,145
2017-07-27T14:56:04.764Z,140
2017-07-27T14:57:15.210Z,140
2017-07-27T14:58:25.269Z,140
2017-07-27T14:59:35.379Z,135
2017-07-27T15:00:45.828Z,135
2017-07-27T15:01:55.902Z,130
2017-07-27T15:03:06.291Z,125
2017-07-27T15:04:16.677Z,125
2017-07-27T15:05:26.742Z,120
2017-07-27T15:06:36.851Z,120
2017-07-27T15:07:46.948Z,115
2017-07-27T15:08:57.341Z,110
2017-07-27T15:10:07.699Z,110
2017-07-27T15:11:18.063Z,110
2017-07-27T15:12:28.486Z,105
2017-07-27T15:13:38.876Z,105
2017-07-27T15:14:49.273Z,105
2017-07-27T15:15:59.665Z,105
2017-07-27T15:17:10.142Z,100
2017-07-27T15:18:20.518Z,100
2017-07-27T15:19:30.582Z,95
2017-07-27T15:20:40.972Z,100
2017-07-27T15:21:51.378Z,100
2017-07-27T15:23:01.761Z,105
2017-07-27T15:24:11.870Z,105
2017-07-27T15:25:22.251Z,100
2017-07-27T15:26:32.316Z,100
2017-07-27T15:27:42.692Z,95
2017-07-27T15:28:53.060Z,85
2017-07-27T15:30:03.475Z,80
2017-07-27T15:31:13.841Z,75
2017-07-27T15:32:23.905Z,70
2017-07-27T15:33:34.276Z,70
2017-07-27T15:34:44.649Z,70
2017-07-27T15:35:55.081Z,70
2017-07-27T15:37:05.455Z,70
2017-07-27T15:38:15.824Z,70
2017-07-27T15:39:25.881Z,70
2017-07-27T15:40:36.233Z,65
2017-07-27T15:41:46.360Z,60
2017-07-27T15:42:56.728Z,55
2017-07-27T15:44:07.097Z,50
2017-07-27T15:45:17.195Z,50
2017-07-27T15:46:27.561Z,45
2017-07-27T15:47:37.973Z,45
2017-07-27T15:48:48.388Z,45
2017-07-27T15:49:58.765Z,40
2017-07-27T15:51:09.201Z,40
2017-07-27T15:52:19.597Z,40
2017-07-27T15:53:29.669Z,45
2017-07-27T15:54:40.044Z,45
2017-07-27T15:55:50.418Z,45
2017-07-27T15:57:00.566Z,45
2017-07-27T15:58:10.959Z,45
2017-07-27T15:59:21.334Z,40
2017-07-27T16:00:31.406Z,40
2017-07-27T16:01:41.488Z,40
2017-07-27T16:02:51.895Z,40
2017-07-27T16:04:02.268Z,40
2017-07-27T16:05:12.630Z,35
2017-07-27T16:06:22.992Z,40
2017-07-27T16:07:33.054Z,40
2017-07-27T16:08:43.171Z,40
2017-07-27T16:09:53.529Z,45
2017-07-27T16:11:03.938Z,45
2017-07-27T16:12:14.325Z,50
2017-07-27T16:13:24.400Z,55
2017-07-27T16:14:34.809Z,60
2017-07-27T16:15:45.175Z,65
2017-07-27T16:16:55.246Z,70
2017-07-27T16:18:05.612Z,70
2017-07-27T16:19:15.976Z,75
2017-07-27T16:20:26.354Z,70
2017-07-27T16:21:36.100Z,70
2017-07-27T16:22:46.459Z,70
2017-07-27T16:23:56.807Z,70
2017-07-27T16:25:07.161Z,70
2017-07-27T16:26:17.577Z,70
2017-07-27T16:27:27.651Z,70
2017-07-27T16:28:38.002Z,65
2017-07-27T16:29:48.354Z,60
2017-07-27T16:30:58.714Z,60
2017-07-27T16:32:08.817Z,60
2017-07-27T16:33:19.168Z,65
2017-07-27T16:34:29.233Z,70
2017-07-27T16:35:39.588Z,70
2017-07-27T16:36:49.958Z,75
2017-07-27T16:38:00.351Z,80
2017-07-27T16:39:10.733Z,80
2017-07-27T16:40:21.095Z,85
2017-07-27T16:41:31.477Z,90
2017-07-27T16:42:41.522Z,100
2017-07-27T16:43:51.942Z,100
2017-07-27T16:45:02.320Z,105
2017-07-27T16:46:12.398Z,100
2017-07-27T16:47:22.802Z,105
2017-07-27T16:48:33.167Z,105
2017-07-27T16:49:43.563Z,110
2017-07-27T16:50:53.637Z,115
2017-07-27T16:52:03.992Z,115
2017-07-27T16:53:14.338Z,115
2017-07-27T16:54:24.696Z,115
2017-07-27T16:55:35.065Z,110
2017-07-27T16:56:45.166Z,110
2017-07-27T16:57:55.591Z,110
2017-07-27T16:59:05.960Z,110
2017-07-27T17:00:16.340Z,110